Terminal Aerodrome Forecast
Issued by NWS Milwaukee/Sullivan, WI

Home | Current Version | Previous Version | Text Only | Print | Product List | Glossary On
Versions: 1 2 3 4 5 6 7 8 9 10 11 12 13 14 15 16 17 18 19 20 21 22 23 24
000
FTUS43 KMKX 282325
TAFMSN
TAF
KMSN 282325Z 2900/2924 06005KT P6SM FEW250
     FM290700 07005KT 4SM BR BKN008
     FM290900 06005KT 3SM BR BKN005
     FM291300 06008KT 5SM BR SCT005 BKN150
     FM291500 08011KT P6SM SCT015 BKN100
     FM292000 08013KT P6SM OVC040=

USA.gov is the U.S. government's official web portal to all federal, state and local government web resources and services.